Time;durP1;ratioP1;P1;durP2;ratioP2;P2;SDS_P1;SDS_P2;PMS_P1;PMS_P2;Temp;Humidity;BMP_temperature;BMP_pressure;BME280_temperature;BME280_humidity;BME280_pressure;Samples;Min_cycle;Max_cycle;Signal;HPM_P1;HPM_P2
2024/04/17 00:01:31;;;;;;;;;;;15.70;53.10;;;;;;5488046;26;19939;-77
2024/04/17 00:03:57;;;;;;;;;;;15.70;53.20;;;;;;5488410;26;20285;-77
2024/04/17 00:06:23;;;;;;;;;;;15.80;53.10;;;;;;5487336;26;19932;-77
2024/04/17 00:08:48;;;;;;;;;;;15.70;53.10;;;;;;5487427;26;19996;-77
2024/04/17 00:11:14;;;;;;;;;;;15.70;53.20;;;;;;5487392;26;19934;-77
2024/04/17 00:13:39;;;;;;;;;;;15.70;53.20;;;;;;5485908;26;19977;-77
2024/04/17 00:16:05;;;;;;;;;;;15.70;53.30;;;;;;5487455;26;20259;-77
2024/04/17 00:18:31;;;;;;;;;;;15.70;52.80;;;;;;5487359;26;19932;-77
2024/04/17 00:20:56;;;;;;;;;;;15.70;53.10;;;;;;5487142;26;19996;-77
2024/04/17 00:23:22;;;;;;;;;;;15.70;53.90;;;;;;5487267;26;19936;-77
2024/04/17 00:25:47;;;;;;;;;;;15.60;53.30;;;;;;5490674;26;20381;-77
2024/04/17 00:28:13;;;;;;;;;;;15.70;53.10;;;;;;5490956;26;19928;-77
2024/04/17 00:30:39;;;;;;;;;;;15.60;53.20;;;;;;5490905;26;19928;-77
2024/04/17 00:33:04;;;;;;;;;;;15.70;53.20;;;;;;5491125;26;20406;-77
2024/04/17 00:35:30;;;;;;;;;;;15.20;52.50;;;;;;5490421;26;19939;-77
2024/04/17 00:37:55;;;;;;;;;;;15.60;53.00;;;;;;5490563;26;19935;-77
2024/04/17 00:40:21;;;;;;;;;;;15.80;53.30;;;;;;5490290;26;19932;-78
2024/04/17 00:42:47;;;;;;;;;;;15.60;52.80;;;;;;5490681;26;19932;-77
2024/04/17 00:45:12;;;;;;;;;;;15.70;53.40;;;;;;5490870;26;20043;-78
2024/04/17 00:47:38;;;;;;;;;;;15.60;53.20;;;;;;5490532;26;19936;-79
2024/04/17 00:50:04;;;;;;;;;;;15.50;52.80;;;;;;5490611;26;20370;-78
2024/04/17 00:52:30;;;;;;;;;;;15.50;52.40;;;;;;5488899;26;19927;-78
2024/04/17 00:54:55;;;;;;;;;;;15.60;52.50;;;;;;5488742;26;19935;-78
2024/04/17 00:57:21;;;;;;;;;;;15.50;53.00;;;;;;5490382;26;19935;-78
2024/04/17 00:59:46;;;;;;;;;;;15.50;52.80;;;;;;5488419;26;19956;-78
2024/04/17 01:02:12;;;;;;;;;;;15.50;53.10;;;;;;5489187;26;19935;-78
2024/04/17 01:04:38;;;;;;;;;;;15.50;52.70;;;;;;5490628;26;19932;-78
2024/04/17 01:07:04;;;;;;;;;;;15.50;53.00;;;;;;5490548;26;19938;-78
2024/04/17 01:09:29;;;;;;;;;;;15.50;53.10;;;;;;5490673;26;19928;-78
2024/04/17 01:11:55;;;;;;;;;;;15.40;53.20;;;;;;5490415;26;19928;-78
2024/04/17 01:14:20;;;;;;;;;;;15.40;53.00;;;;;;5490489;26;20261;-78
2024/04/17 01:16:46;;;;;;;;;;;15.80;53.60;;;;;;5490571;26;19934;-78
2024/04/17 01:19:12;;;;;;;;;;;15.40;53.10;;;;;;5490452;26;19936;-78
2024/04/17 01:21:37;;;;;;;;;;;15.40;52.90;;;;;;5490504;26;19931;-79
2024/04/17 01:24:03;;;;;;;;;;;15.40;53.10;;;;;;5490368;26;19938;-79
2024/04/17 01:26:29;;;;;;;;;;;15.40;53.00;;;;;;5490468;26;19932;-78
2024/04/17 01:28:54;;;;;;;;;;;15.40;53.00;;;;;;5490911;26;19935;-78
2024/04/17 01:31:19;;;;;;;;;;;15.40;53.50;;;;;;5490468;26;19935;-78
2024/04/17 01:33:45;;;;;;;;;;;15.40;52.90;;;;;;5489627;26;19995;-78
2024/04/17 01:36:13;;;;;;;;;;;15.40;53.30;;;;;;5489790;26;19932;-78
2024/04/17 01:38:39;;;;;;;;;;;15.40;52.00;;;;;;5488804;26;19928;-78
2024/04/17 01:41:04;;;;;;;;;;;15.40;53.50;;;;;;5490820;26;19935;-78
2024/04/17 01:43:31;;;;;;;;;;;15.70;53.60;;;;;;5490236;26;19960;-78
2024/04/17 01:45:57;;;;;;;;;;;15.70;53.40;;;;;;5490041;26;19935;-78
2024/04/17 01:48:23;;;;;;;;;;;15.30;53.20;;;;;;5489931;26;20004;-78
2024/04/17 01:50:49;;;;;;;;;;;15.30;53.30;;;;;;5490194;26;20022;-78
2024/04/17 01:53:14;;;;;;;;;;;15.40;52.50;;;;;;5490083;26;20363;-78
2024/04/17 01:55:40;;;;;;;;;;;15.30;53.20;;;;;;5489921;26;19969;-78
2024/04/17 01:58:05;;;;;;;;;;;15.30;53.40;;;;;;5490446;26;19968;-78
2024/04/17 02:00:33;;;;;;;;;;;15.30;53.50;;;;;;5489828;26;19928;-78
2024/04/17 02:02:58;;;;;;;;;;;15.30;53.10;;;;;;5489897;26;19928;-78
2024/04/17 02:05:24;;;;;;;;;;;15.30;53.50;;;;;;5489004;26;19935;-78
2024/04/17 02:07:49;;;;;;;;;;;15.30;53.30;;;;;;5488191;26;19928;-78
2024/04/17 02:10:15;;;;;;;;;;;15.50;53.60;;;;;;5488259;26;19939;-78
2024/04/17 02:12:40;;;;;;;;;;;15.30;53.40;;;;;;5489613;26;19927;-78
2024/04/17 02:15:06;;;;;;;;;;;15.20;54.10;;;;;;5489586;26;19927;-78
2024/04/17 02:17:31;;;;;;;;;;;15.20;53.20;;;;;;5489343;26;19964;-78
2024/04/17 02:19:57;;;;;;;;;;;15.20;54.60;;;;;;5487648;26;19934;-78
2024/04/17 02:22:22;;;;;;;;;;;15.20;54.50;;;;;;5490065;26;19943;-78
2024/04/17 02:24:48;;;;;;;;;;;15.20;54.50;;;;;;5489453;26;19978;-78
2024/04/17 02:27:13;;;;;;;;;;;15.20;54.40;;;;;;5490081;26;19978;-78
2024/04/17 02:29:39;;;;;;;;;;;15.20;53.90;;;;;;5489703;26;19928;-78
2024/04/17 02:32:05;;;;;;;;;;;15.30;54.30;;;;;;5489739;26;19954;-77
2024/04/17 02:34:30;;;;;;;;;;;15.20;53.50;;;;;;5489223;26;19996;-77
2024/04/17 02:36:56;;;;;;;;;;;15.20;54.30;;;;;;5489251;26;19928;-78
2024/04/17 02:39:21;;;;;;;;;;;15.10;54.40;;;;;;5489743;26;20160;-77
2024/04/17 02:41:47;;;;;;;;;;;15.20;54.50;;;;;;5489184;26;20429;-78
2024/04/17 02:44:13;;;;;;;;;;;15.20;54.40;;;;;;5489325;26;19931;-77
2024/04/17 02:46:39;;;;;;;;;;;15.20;54.60;;;;;;5488640;26;19935;-78
2024/04/17 02:49:05;;;;;;;;;;;15.10;54.60;;;;;;5488772;26;19928;-77
2024/04/17 02:51:31;;;;;;;;;;;15.30;54.60;;;;;;5488891;26;19928;-77
2024/04/17 02:53:57;;;;;;;;;;;15.20;54.20;;;;;;5488917;26;19928;-77
2024/04/17 02:56:23;;;;;;;;;;;15.10;54.50;;;;;;5489561;26;19928;-77
2024/04/17 02:58:48;;;;;;;;;;;15.10;54.80;;;;;;5489224;26;19959;-78
2024/04/17 03:01:15;;;;;;;;;;;15.10;54.10;;;;;;5489633;26;20000;-77
2024/04/17 03:03:41;;;;;;;;;;;15.20;54.60;;;;;;5489237;26;20324;-77
2024/04/17 03:06:07;;;;;;;;;;;15.40;54.60;;;;;;5488598;26;19935;-77
2024/04/17 03:08:34;;;;;;;;;;;15.10;54.90;;;;;;5489090;26;20357;-77
2024/04/17 03:11:00;;;;;;;;;;;15.10;54.70;;;;;;5488734;26;19928;-77
2024/04/17 03:13:26;;;;;;;;;;;15.10;54.50;;;;;;5489139;26;19997;-77
2024/04/17 03:15:52;;;;;;;;;;;15.10;54.60;;;;;;5488604;26;19928;-77
2024/04/17 03:18:19;;;;;;;;;;;13.50;53.70;;;;;;5488563;26;19939;-77
2024/04/17 03:20:45;;;;;;;;;;;15.10;54.60;;;;;;5488696;26;19935;-77
2024/04/17 03:23:11;;;;;;;;;;;15.30;55.00;;;;;;5489071;26;19936;-77
2024/04/17 03:25:37;;;;;;;;;;;15.00;54.90;;;;;;5488525;26;19954;-78
2024/04/17 03:28:03;;;;;;;;;;;14.90;54.70;;;;;;5488473;26;19927;-77
2024/04/17 03:30:30;;;;;;;;;;;15.20;54.50;;;;;;5488358;26;19939;-78
2024/04/17 03:32:56;;;;;;;;;;;15.10;54.90;;;;;;5488183;26;19927;-77
2024/04/17 03:35:22;;;;;;;;;;;15.10;54.90;;;;;;5488269;26;20024;-77
2024/04/17 03:37:48;;;;;;;;;;;15.20;55.30;;;;;;5486581;26;19928;-78
2024/04/17 03:40:14;;;;;;;;;;;15.10;54.40;;;;;;5488262;26;19928;-77
2024/04/17 03:42:39;;;;;;;;;;;15.00;54.60;;;;;;5488400;26;20004;-78
2024/04/17 03:45:05;;;;;;;;;;;15.00;55.20;;;;;;5488471;26;19937;-77
2024/04/17 03:47:31;;;;;;;;;;;15.50;55.20;;;;;;5488561;26;19932;-78
2024/04/17 03:50:06;;;;;;;;;;;15.00;55.00;;;;;;5488242;26;19932;-78
2024/04/17 03:52:32;;;;;;;;;;;15.00;51.80;;;;;;5488897;26;19963;-77
2024/04/17 03:54:58;;;;;;;;;;;15.00;54.10;;;;;;5488242;26;19935;-77
2024/04/17 03:57:24;;;;;;;;;;;15.00;55.10;;;;;;5487374;26;19999;-77
2024/04/17 03:59:50;;;;;;;;;;;15.00;55.40;;;;;;5488372;26;19967;-77
2024/04/17 04:02:15;;;;;;;;;;;14.80;55.50;;;;;;5488488;26;19932;-77
2024/04/17 04:04:41;;;;;;;;;;;15.20;55.30;;;;;;5488374;26;19928;-78
2024/04/17 04:07:06;;;;;;;;;;;15.00;56.20;;;;;;5487656;26;19927;-78
2024/04/17 04:09:33;;;;;;;;;;;15.10;54.60;;;;;;5487159;26;20205;-82
2024/04/17 04:11:59;;;;;;;;;;;15.00;57.80;;;;;;5493069;26;19973;-79
2024/04/17 04:14:24;;;;;;;;;;;15.00;58.10;;;;;;5488343;26;19928;-76
2024/04/17 04:16:50;;;;;;;;;;;15.30;58.70;;;;;;5485802;26;19928;-76
2024/04/17 04:19:16;;;;;;;;;;;15.10;58.80;;;;;;5487602;26;20377;-77
2024/04/17 04:21:41;;;;;;;;;;;15.00;59.60;;;;;;5488118;26;20110;-80
2024/04/17 04:24:07;;;;;;;;;;;15.20;60.00;;;;;;5487144;26;20059;-80
2024/04/17 04:26:32;;;;;;;;;;;15.00;60.70;;;;;;5487742;26;19964;-80
2024/04/17 04:28:58;;;;;;;;;;;15.00;62.00;;;;;;5487399;26;20399;-80
2024/04/17 04:31:23;;;;;;;;;;;14.90;56.50;;;;;;5485321;26;19934;-80
2024/04/17 04:33:49;;;;;;;;;;;15.00;57.00;;;;;;5487474;26;19928;-80
2024/04/17 04:36:14;;;;;;;;;;;15.00;56.30;;;;;;5487047;26;20382;-81
2024/04/17 04:38:40;;;;;;;;;;;15.00;57.10;;;;;;5487000;26;19928;-81
2024/04/17 04:41:05;;;;;;;;;;;14.70;57.00;;;;;;5487196;26;19962;-81
2024/04/17 04:43:31;;;;;;;;;;;14.90;57.20;;;;;;5486756;26;19932;-81
2024/04/17 04:45:56;;;;;;;;;;;15.00;57.10;;;;;;5486787;26;19928;-81
2024/04/17 04:48:22;;;;;;;;;;;14.80;56.90;;;;;;5487301;26;20005;-81
2024/04/17 04:50:47;;;;;;;;;;;14.90;57.40;;;;;;5484760;26;20280;-81
2024/04/17 04:53:13;;;;;;;;;;;14.90;57.50;;;;;;5486312;26;19934;-81
2024/04/17 04:55:38;;;;;;;;;;;14.70;57.30;;;;;;5486459;26;19970;-81
2024/04/17 04:58:04;;;;;;;;;;;15.40;57.30;;;;;;5484877;26;20049;-80
2024/04/17 05:00:29;;;;;;;;;;;15.10;57.20;;;;;;5486569;26;19939;-81
2024/04/17 05:02:55;;;;;;;;;;;15.00;57.60;;;;;;5486492;26;20358;-79
2024/04/17 05:05:20;;;;;;;;;;;15.00;57.30;;;;;;5486378;26;19935;-79
2024/04/17 05:07:46;;;;;;;;;;;14.90;58.10;;;;;;5486230;26;19935;-79
2024/04/17 05:10:11;;;;;;;;;;;15.00;57.90;;;;;;5488197;26;20306;-79
2024/04/17 05:12:38;;;;;;;;;;;15.00;57.90;;;;;;5490059;26;19928;-79
2024/04/17 05:15:03;;;;;;;;;;;15.20;58.10;;;;;;5490281;26;19932;-79
2024/04/17 05:17:29;;;;;;;;;;;15.00;56.90;;;;;;5490495;26;19995;-77
2024/04/17 05:19:54;;;;;;;;;;;15.10;58.00;;;;;;5488253;26;19928;-77
2024/04/17 05:22:20;;;;;;;;;;;15.10;58.10;;;;;;5490338;26;19980;-76
2024/04/17 05:24:45;;;;;;;;;;;14.60;57.70;;;;;;5490190;26;19929;-76
2024/04/17 05:27:11;;;;;;;;;;;15.10;58.00;;;;;;5490093;26;19928;-77
2024/04/17 05:29:36;;;;;;;;;;;15.10;58.40;;;;;;5490207;26;20348;-77
2024/04/17 05:32:02;;;;;;;;;;;15.10;58.30;;;;;;5488071;26;19932;-77
2024/04/17 05:34:27;;;;;;;;;;;15.30;58.20;;;;;;5489734;26;20273;-77
2024/04/17 05:36:53;;;;;;;;;;;15.10;58.00;;;;;;5489651;26;19976;-77
2024/04/17 05:39:18;;;;;;;;;;;14.80;58.10;;;;;;5489612;26;19928;-77
2024/04/17 05:41:44;;;;;;;;;;;15.20;58.30;;;;;;5489558;26;20278;-77
2024/04/17 05:44:09;;;;;;;;;;;15.20;58.40;;;;;;5489845;26;19934;-78
2024/04/17 05:46:35;;;;;;;;;;;15.30;58.30;;;;;;5490018;26;20271;-79
2024/04/17 05:49:00;;;;;;;;;;;15.30;58.40;;;;;;5489581;26;19960;-78
2024/04/17 05:51:26;;;;;;;;;;;15.30;58.40;;;;;;5489727;26;20307;-79
2024/04/17 05:53:51;;;;;;;;;;;15.30;58.10;;;;;;5489587;26;20020;-78
2024/04/17 05:56:17;;;;;;;;;;;15.30;58.40;;;;;;5489325;26;19948;-78
2024/04/17 05:58:42;;;;;;;;;;;15.20;58.50;;;;;;5489251;26;19928;-78
2024/04/17 06:01:08;;;;;;;;;;;15.30;58.20;;;;;;5489499;26;19932;-78
2024/04/17 06:03:33;;;;;;;;;;;15.30;58.30;;;;;;5489315;26;20001;-78
2024/04/17 06:05:59;;;;;;;;;;;15.40;59.40;;;;;;5489361;26;19928;-78
2024/04/17 06:08:24;;;;;;;;;;;15.30;58.20;;;;;;5489375;26;19928;-78
2024/04/17 06:10:50;;;;;;;;;;;15.40;58.00;;;;;;5489437;26;19934;-78
2024/04/17 06:13:15;;;;;;;;;;;15.30;58.80;;;;;;5489231;26;19952;-78
2024/04/17 06:15:41;;;;;;;;;;;15.50;59.00;;;;;;5488143;26;19928;-78
2024/04/17 06:18:06;;;;;;;;;;;15.40;58.70;;;;;;5489476;26;20059;-78
2024/04/17 06:20:32;;;;;;;;;;;15.40;58.20;;;;;;5488728;26;19935;-84
2024/04/17 06:22:57;;;;;;;;;;;15.40;58.80;;;;;;5489237;26;19959;-80
2024/04/17 06:25:23;;;;;;;;;;;15.50;58.70;;;;;;5489113;26;20000;-80
2024/04/17 06:27:49;;;;;;;;;;;15.40;58.80;;;;;;5488970;26;20367;-79
2024/04/17 06:30:14;;;;;;;;;;;15.50;58.80;;;;;;5489308;26;19928;-78
2024/04/17 06:32:40;;;;;;;;;;;15.50;58.30;;;;;;5488649;26;20042;-80
2024/04/17 06:35:05;;;;;;;;;;;15.40;58.50;;;;;;5486857;26;19928;-80
2024/04/17 06:37:31;;;;;;;;;;;15.50;58.30;;;;;;5487128;26;19934;-78
2024/04/17 06:39:56;;;;;;;;;;;15.50;59.00;;;;;;5488955;26;19944;-78
2024/04/17 06:42:22;;;;;;;;;;;15.50;58.80;;;;;;5489065;26;20426;-80
2024/04/17 06:44:47;;;;;;;;;;;15.50;58.80;;;;;;5488908;26;20054;-82
2024/04/17 06:47:13;;;;;;;;;;;15.60;59.10;;;;;;5488743;26;20274;-81
2024/04/17 06:49:39;;;;;;;;;;;15.70;58.90;;;;;;5488960;26;20239;-80
2024/04/17 06:52:05;;;;;;;;;;;15.80;59.40;;;;;;5488640;26;19928;-80
2024/04/17 06:54:30;;;;;;;;;;;15.70;58.40;;;;;;5488674;26;19928;-81
2024/04/17 06:56:56;;;;;;;;;;;15.80;59.10;;;;;;5488811;26;19934;-82
2024/04/17 06:59:21;;;;;;;;;;;15.80;58.80;;;;;;5488504;26;20630;-77
2024/04/17 07:01:47;;;;;;;;;;;15.80;58.50;;;;;;5488004;26;19928;-76
2024/04/17 07:04:12;;;;;;;;;;;16.00;58.70;;;;;;5488559;26;20379;-75
2024/04/17 07:06:38;;;;;;;;;;;16.00;58.50;;;;;;5488126;26;19939;-77
2024/04/17 07:09:03;;;;;;;;;;;16.00;58.60;;;;;;5488145;26;19965;-76
2024/04/17 07:11:29;;;;;;;;;;;16.00;58.50;;;;;;5488707;26;19943;-76
2024/04/17 07:13:54;;;;;;;;;;;16.00;58.40;;;;;;5488181;26;20390;-75
2024/04/17 07:16:20;;;;;;;;;;;16.10;58.70;;;;;;5488062;26;19928;-76
2024/04/17 07:18:46;;;;;;;;;;;16.10;58.60;;;;;;5488146;26;19928;-74
2024/04/17 07:21:11;;;;;;;;;;;16.00;58.50;;;;;;5488323;26;19940;-76
2024/04/17 07:23:40;;;;;;;;;;;16.00;58.80;;;;;;5487851;26;19936;-77
2024/04/17 07:26:05;;;;;;;;;;;15.90;58.80;;;;;;5487807;26;20327;-76
2024/04/17 07:28:31;;;;;;;;;;;16.10;59.10;;;;;;5487819;26;19928;-78
2024/04/17 07:30:56;;;;;;;;;;;16.00;59.40;;;;;;5492179;26;19932;-77
2024/04/17 07:33:22;;;;;;;;;;;15.90;59.00;;;;;;5488638;26;19928;-77
2024/04/17 07:35:47;;;;;;;;;;;15.80;59.20;;;;;;5486245;26;19928;-82
2024/04/17 07:38:13;;;;;;;;;;;15.90;59.00;;;;;;5486234;26;19996;-75
2024/04/17 07:40:38;;;;;;;;;;;16.00;59.20;;;;;;5488661;26;20307;-79
2024/04/17 07:43:04;;;;;;;;;;;16.00;59.10;;;;;;5486111;26;19977;-76
2024/04/17 07:45:30;;;;;;;;;;;15.90;58.50;;;;;;5488226;26;20366;-76
2024/04/17 07:47:55;;;;;;;;;;;16.00;59.30;;;;;;5487787;26;19936;-75
2024/04/17 07:50:21;;;;;;;;;;;15.90;59.20;;;;;;5488157;26;19928;-77
2024/04/17 07:52:46;;;;;;;;;;;15.90;59.40;;;;;;5490932;26;19928;-76
2024/04/17 07:55:12;;;;;;;;;;;15.90;58.90;;;;;;5487733;26;19935;-76
2024/04/17 07:57:37;;;;;;;;;;;16.00;59.90;;;;;;5485906;26;19956;-78
2024/04/17 08:00:03;;;;;;;;;;;16.00;59.70;;;;;;5486111;26;19930;-77
2024/04/17 08:02:28;;;;;;;;;;;16.00;58.90;;;;;;5487895;26;19935;-78
2024/04/17 08:04:54;;;;;;;;;;;16.00;59.80;;;;;;5488074;26;19936;-81
2024/04/17 08:07:19;;;;;;;;;;;16.10;59.70;;;;;;5488656;26;19936;-81
2024/04/17 08:09:45;;;;;;;;;;;16.00;59.70;;;;;;5490060;26;19935;-79
2024/04/17 08:12:10;;;;;;;;;;;15.60;59.50;;;;;;5487879;26;19996;-80
2024/04/17 08:14:36;;;;;;;;;;;15.90;59.50;;;;;;5488144;26;19969;-78
2024/04/17 08:17:01;;;;;;;;;;;16.20;60.00;;;;;;5487903;26;20372;-79
2024/04/17 08:19:27;;;;;;;;;;;16.00;59.60;;;;;;5487831;26;19935;-81
2024/04/17 08:21:52;;;;;;;;;;;16.00;59.70;;;;;;5487569;26;19935;-76
2024/04/17 08:24:19;;;;;;;;;;;16.00;59.60;;;;;;5487355;26;19928;-76
2024/04/17 08:26:45;;;;;;;;;;;16.00;59.50;;;;;;5492280;26;19943;-79
2024/04/17 08:29:11;;;;;;;;;;;16.10;59.80;;;;;;5486133;26;19928;-77
2024/04/17 08:31:36;;;;;;;;;;;15.90;59.70;;;;;;5487542;26;19957;-79
2024/04/17 08:34:02;;;;;;;;;;;16.00;59.70;;;;;;5487732;26;19934;-74
2024/04/17 08:36:27;;;;;;;;;;;16.10;59.50;;;;;;5485600;26;19936;-75
2024/04/17 08:38:55;;;;;;;;;;;16.00;59.40;;;;;;5487751;26;19928;-75
2024/04/17 08:41:25;;;;;;;;;;;16.00;59.20;;;;;;5487150;26;19936;-75
2024/04/17 08:43:52;;;;;;;;;;;16.10;59.60;;;;;;5488112;26;20231;-78
2024/04/17 08:46:17;;;;;;;;;;;16.10;56.50;;;;;;5490449;26;19928;-76
2024/04/17 08:48:44;;;;;;;;;;;16.10;56.50;;;;;;5492020;26;19934;-82
2024/04/17 08:51:11;;;;;;;;;;;16.20;56.30;;;;;;5491234;26;19935;-78
2024/04/17 08:53:37;;;;;;;;;;;16.20;55.70;;;;;;5490765;26;19996;-78
2024/04/17 08:56:03;;;;;;;;;;;16.20;56.30;;;;;;5490745;26;20019;-79
2024/04/17 08:58:29;;;;;;;;;;;16.20;56.00;;;;;;5490736;26;19935;-79
2024/04/17 09:00:55;;;;;;;;;;;16.30;56.10;;;;;;5490576;26;19928;-74
2024/04/17 09:03:22;;;;;;;;;;;16.40;56.00;;;;;;5490593;26;19935;-75
2024/04/17 09:05:48;;;;;;;;;;;16.40;56.20;;;;;;5490852;26;20025;-74
2024/04/17 09:08:15;;;;;;;;;;;16.40;56.20;;;;;;5490742;26;19936;-78
2024/04/17 09:10:41;;;;;;;;;;;16.50;56.10;;;;;;5490505;26;19927;-77
2024/04/17 09:13:07;;;;;;;;;;;16.50;55.50;;;;;;5490245;26;19935;-77
2024/04/17 09:15:32;;;;;;;;;;;16.60;56.10;;;;;;5488185;26;19928;-77
2024/04/17 09:18:01;;;;;;;;;;;16.60;56.70;;;;;;5489949;26;20301;-78
2024/04/17 09:20:27;;;;;;;;;;;17.10;55.00;;;;;;5489971;26;19932;-76
2024/04/17 09:22:53;;;;;;;;;;;16.70;55.80;;;;;;5489736;26;20118;-76
2024/04/17 09:25:19;;;;;;;;;;;16.80;55.60;;;;;;5490254;26;19935;-73
2024/04/17 09:27:45;;;;;;;;;;;16.90;55.40;;;;;;5489955;26;19934;-78
2024/04/17 09:30:11;;;;;;;;;;;16.50;55.00;;;;;;5489852;26;20508;-76
2024/04/17 09:32:37;;;;;;;;;;;17.00;55.40;;;;;;5487850;26;19928;-76
2024/04/17 09:35:03;;;;;;;;;;;17.00;54.70;;;;;;5490049;26;19943;-76
2024/04/17 09:37:30;;;;;;;;;;;17.00;55.40;;;;;;5489726;26;19928;-76
2024/04/17 09:40:03;;;;;;;;;;;16.90;55.40;;;;;;5489884;26;20007;-77
2024/04/17 09:42:29;;;;;;;;;;;17.00;54.20;;;;;;5489390;26;19956;-77
2024/04/17 09:44:58;;;;;;;;;;;16.90;55.60;;;;;;5489466;26;19928;-76
2024/04/17 09:47:23;;;;;;;;;;;16.90;55.60;;;;;;5489235;26;19928;-77
2024/04/17 09:49:53;;;;;;;;;;;16.90;55.80;;;;;;5489294;26;19976;-77
2024/04/17 09:52:19;;;;;;;;;;;16.90;56.00;;;;;;5488999;26;19928;-79
2024/04/17 09:54:45;;;;;;;;;;;16.90;56.00;;;;;;5486824;26;19932;-77
2024/04/17 09:57:11;;;;;;;;;;;16.90;56.10;;;;;;5488921;26;19943;-78
2024/04/17 09:59:37;;;;;;;;;;;16.90;56.50;;;;;;5489336;26;19928;-77
2024/04/17 10:02:03;;;;;;;;;;;17.00;55.90;;;;;;5487929;26;19928;-77
2024/04/17 10:04:29;;;;;;;;;;;16.90;56.30;;;;;;5489391;26;19935;-77
2024/04/17 10:06:55;;;;;;;;;;;16.90;56.60;;;;;;5489399;26;20061;-78
2024/04/17 10:09:22;;;;;;;;;;;16.90;56.70;;;;;;5489692;26;20013;-79
2024/04/17 10:11:52;;;;;;;;;;;16.90;56.50;;;;;;5489549;26;19934;-75
2024/04/17 10:14:18;;;;;;;;;;;16.90;55.50;;;;;;5489672;26;19928;-75
2024/04/17 10:16:44;;;;;;;;;;;16.90;56.60;;;;;;5489479;26;19928;-75
2024/04/17 10:19:11;;;;;;;;;;;16.90;56.90;;;;;;5489224;26;19928;-79
2024/04/17 10:21:37;;;;;;;;;;;16.90;56.70;;;;;;5489456;26;19935;-75
2024/04/17 10:24:06;;;;;;;;;;;16.90;56.70;;;;;;5489412;26;19928;-80
2024/04/17 10:26:42;;;;;;;;;;;16.90;56.30;;;;;;5488999;26;19936;-75
2024/04/17 10:29:15;;;;;;;;;;;16.90;55.10;;;;;;5489251;26;20374;-76
2024/04/17 10:31:40;;;;;;;;;;;16.90;55.00;;;;;;5489496;26;19928;-75
2024/04/17 10:34:06;;;;;;;;;;;17.00;56.50;;;;;;5489151;26;20314;-77
2024/04/17 10:36:32;;;;;;;;;;;17.00;56.50;;;;;;5488906;26;19935;-75
2024/04/17 10:38:59;;;;;;;;;;;17.00;56.30;;;;;;5489001;26;19969;-76
2024/04/17 10:41:27;;;;;;;;;;;17.00;56.30;;;;;;5489263;26;19928;-80
2024/04/17 10:43:53;;;;;;;;;;;17.00;56.40;;;;;;5489197;26;19935;-73
2024/04/17 10:46:20;;;;;;;;;;;17.00;56.20;;;;;;5489103;26;19928;-75
2024/04/17 10:48:51;;;;;;;;;;;17.00;55.50;;;;;;5489180;26;19928;-75
2024/04/17 10:51:18;;;;;;;;;;;17.00;54.60;;;;;;5489023;26;19928;-74
2024/04/17 10:53:48;;;;;;;;;;;17.00;55.50;;;;;;5488933;26;19928;-77
2024/04/17 10:56:14;;;;;;;;;;;17.00;55.90;;;;;;5489218;26;19928;-82
2024/04/17 10:58:39;;;;;;;;;;;17.00;55.90;;;;;;5489491;26;19928;-78
2024/04/17 11:01:05;;;;;;;;;;;17.00;55.90;;;;;;5488660;26;19938;-76
2024/04/17 11:03:30;;;;;;;;;;;17.00;55.80;;;;;;5489068;26;19995;-78
2024/04/17 11:05:56;;;;;;;;;;;17.00;55.90;;;;;;5488294;26;20363;-76
2024/04/17 11:08:22;;;;;;;;;;;17.50;56.40;;;;;;5488785;26;19931;-79
2024/04/17 11:10:48;;;;;;;;;;;17.00;55.80;;;;;;5488768;26;19939;-80
2024/04/17 11:13:14;;;;;;;;;;;17.00;55.80;;;;;;5488410;26;20373;-75
2024/04/17 11:15:40;;;;;;;;;;;17.00;55.70;;;;;;5488697;26;20382;-76
2024/04/17 11:18:07;;;;;;;;;;;17.00;55.90;;;;;;5488066;26;19927;-78
2024/04/17 11:20:32;;;;;;;;;;;17.00;55.60;;;;;;5488543;26;19932;-77
2024/04/17 11:22:58;;;;;;;;;;;17.00;55.70;;;;;;5488260;26;20003;-79
2024/04/17 11:25:23;;;;;;;;;;;17.00;55.80;;;;;;5488236;26;19932;-79
2024/04/17 11:27:49;;;;;;;;;;;17.00;55.80;;;;;;5488611;26;19977;-79
2024/04/17 11:30:15;;;;;;;;;;;17.00;55.70;;;;;;5486354;26;19928;-79
2024/04/17 11:32:41;;;;;;;;;;;17.00;55.20;;;;;;5488079;26;20372;-77
2024/04/17 11:35:14;;;;;;;;;;;17.00;55.80;;;;;;5488126;26;19927;-76
2024/04/17 11:37:41;;;;;;;;;;;17.00;54.00;;;;;;5486102;26;19932;-79
2024/04/17 11:40:07;;;;;;;;;;;17.00;55.60;;;;;;5488029;26;19927;-81
2024/04/17 11:42:32;;;;;;;;;;;17.00;55.20;;;;;;5487750;26;19928;-80
2024/04/17 11:44:58;;;;;;;;;;;17.00;55.80;;;;;;5487738;26;19934;-76
2024/04/17 11:47:23;;;;;;;;;;;17.00;55.70;;;;;;5487395;26;20050;-78
2024/04/17 11:49:49;;;;;;;;;;;16.60;55.50;;;;;;5487402;26;19955;-76
2024/04/17 11:52:14;;;;;;;;;;;17.00;55.70;;;;;;5487282;26;19928;-77
2024/04/17 11:54:40;;;;;;;;;;;17.10;54.90;;;;;;5485512;26;19927;-76
2024/04/17 11:57:06;;;;;;;;;;;17.00;56.10;;;;;;5487872;26;19940;-82
2024/04/17 11:59:31;;;;;;;;;;;17.00;55.50;;;;;;5487505;26;19928;-85
2024/04/17 12:01:57;;;;;;;;;;;17.10;55.40;;;;;;5487226;26;19956;-83
2024/04/17 12:04:27;;;;;;;;;;;17.30;55.10;;;;;;5487421;26;20003;-82
2024/04/17 12:06:53;;;;;;;;;;;17.40;54.10;;;;;;5487155;26;19928;-82
2024/04/17 12:09:19;;;;;;;;;;;17.50;54.00;;;;;;5487664;26;19940;-82
2024/04/17 12:11:44;;;;;;;;;;;17.60;54.10;;;;;;5487464;26;19932;-79
2024/04/17 12:14:10;;;;;;;;;;;17.60;54.00;;;;;;5487421;26;19932;-78
2024/04/17 12:16:35;;;;;;;;;;;17.60;54.00;;;;;;5487274;26;19927;-82
2024/04/17 12:19:01;;;;;;;;;;;17.70;53.70;;;;;;5486841;26;19928;-81
2024/04/17 12:21:26;;;;;;;;;;;17.80;53.60;;;;;;5487362;26;19939;-82
2024/04/17 12:23:55;;;;;;;;;;;18.00;53.70;;;;;;5487868;26;20009;-81
2024/04/17 12:29:04;;;;;;;;;;;17.70;52.80;;;;;;5487233;26;20003;-86
2024/04/17 12:31:30;;;;;;;;;;;17.60;53.90;;;;;;5487421;26;19931;-80
2024/04/17 12:33:55;;;;;;;;;;;17.70;54.20;;;;;;5487394;26;20259;-79
2024/04/17 12:36:21;;;;;;;;;;;17.60;54.10;;;;;;5487144;26;19928;-78
2024/04/17 12:38:46;;;;;;;;;;;17.70;54.30;;;;;;5487124;26;19928;-79
2024/04/17 12:41:12;;;;;;;;;;;17.70;54.20;;;;;;5486818;26;19934;-79
2024/04/17 12:43:37;;;;;;;;;;;17.70;53.90;;;;;;5486389;26;20339;-85
2024/04/17 12:46:03;;;;;;;;;;;17.70;54.30;;;;;;5486902;26;19928;-77
2024/04/17 12:48:29;;;;;;;;;;;17.70;53.80;;;;;;5486445;26;19940;-78
2024/04/17 12:50:54;;;;;;;;;;;17.70;54.30;;;;;;5486443;26;19928;-77
2024/04/17 12:53:20;;;;;;;;;;;17.90;53.70;;;;;;5486964;26;20355;-78
2024/04/17 12:55:55;;;;;;;;;;;18.30;54.50;;;;;;5486603;26;19973;-79
2024/04/17 12:58:21;;;;;;;;;;;17.80;53.60;;;;;;5486889;26;19928;-79
2024/04/17 13:00:47;;;;;;;;;;;17.90;53.90;;;;;;5486796;26;20346;-79
2024/04/17 13:03:13;;;;;;;;;;;18.20;54.30;;;;;;5486690;26;19939;-79
2024/04/17 13:05:38;;;;;;;;;;;18.20;54.10;;;;;;5486178;26;19928;-77
2024/04/17 13:08:04;;;;;;;;;;;18.10;53.80;;;;;;5486549;26;19947;-77
2024/04/17 13:10:29;;;;;;;;;;;18.30;53.70;;;;;;5486449;26;20491;-77
2024/04/17 13:12:55;;;;;;;;;;;18.20;53.90;;;;;;5486504;26;20374;-77
2024/04/17 13:15:23;;;;;;;;;;;18.20;54.10;;;;;;5486482;26;19959;-77
2024/04/17 13:17:50;;;;;;;;;;;17.80;52.50;;;;;;5486028;26;19935;-77
2024/04/17 13:20:16;;;;;;;;;;;18.20;53.80;;;;;;5485914;26;19996;-77
2024/04/17 13:22:41;;;;;;;;;;;18.30;53.70;;;;;;5486614;26;19948;-78
2024/04/17 13:25:07;;;;;;;;;;;18.30;53.70;;;;;;5486029;26;19938;-77
2024/04/17 13:27:32;;;;;;;;;;;18.30;53.80;;;;;;5486613;26;19928;-78
2024/04/17 13:29:58;;;;;;;;;;;18.20;53.80;;;;;;5486255;26;20362;-77
2024/04/17 13:32:24;;;;;;;;;;;18.30;54.10;;;;;;5489464;26;20030;-77
2024/04/17 13:34:54;;;;;;;;;;;18.00;52.50;;;;;;5490123;26;20255;-78
2024/04/17 13:37:21;;;;;;;;;;;18.30;52.50;;;;;;5489668;26;19927;-78
2024/04/17 13:39:46;;;;;;;;;;;18.40;53.60;;;;;;5489485;26;19931;-78
2024/04/17 13:42:12;;;;;;;;;;;18.40;54.00;;;;;;5489685;26;20259;-78
2024/04/17 13:44:37;;;;;;;;;;;18.40;53.90;;;;;;5489572;26;19928;-78
2024/04/17 13:47:04;;;;;;;;;;;18.30;54.10;;;;;;5489578;26;20026;-78
2024/04/17 13:49:29;;;;;;;;;;;18.30;54.10;;;;;;5489929;26;20358;-78
2024/04/17 13:51:55;;;;;;;;;;;18.30;54.50;;;;;;5489502;26;20026;-77
2024/04/17 13:54:21;;;;;;;;;;;18.20;54.40;;;;;;5489564;26;20297;-76
2024/04/17 13:56:47;;;;;;;;;;;18.20;54.70;;;;;;5489784;26;19935;-77
2024/04/17 13:59:13;;;;;;;;;;;18.10;54.70;;;;;;5489584;26;19927;-76
2024/04/17 14:01:39;;;;;;;;;;;18.10;55.30;;;;;;5489744;26;19939;-78
2024/04/17 14:04:05;;;;;;;;;;;18.10;55.00;;;;;;5489706;26;19996;-79
2024/04/17 14:06:30;;;;;;;;;;;18.10;55.30;;;;;;5489016;26;20018;-79
2024/04/17 14:08:56;;;;;;;;;;;18.10;55.50;;;;;;5490145;26;20270;-78
2024/04/17 14:11:21;;;;;;;;;;;18.10;55.30;;;;;;5490198;26;19935;-79